Flight Track Log - Related Links

Times and Time Zones

All times are in EDT time to prevent confusion due to time zone crossing. See the UAL949 flight status page for this flight to view local times or setup timezone preferences in your user account.

Time Position Orientation Groundspeed Altitude Reporting Facility
EDT Latitude Longitude Course Direction KTS MPH feet Rate Location/Type
Tue 07:47:11 AM 51.4646 -0.5093 107° East 190 219 700  Level FlightAware UK
Tue 07:47:12 AM 51.4640 -0.5060 268° West 181 208 600 2,500 Descending FlightAware ADS-B
Tue 07:47:35 AM 51.4712 -0.5402 289° West 191 220 1,700 2,889 Climbing FlightAware ADS-B
Tue 07:47:39 AM 51.4734 -0.5452 305° West 187 215 1,900 2,769 Climbing FlightAware ADS-B
Tue 07:47:48 AM 51.4776 -0.5544 306° West 184 212 2,300 2,625 Climbing FlightAware ADS-B
Tue 07:47:55 AM 51.4811 -0.5621 306° West 185 213 2,600 2,400 Climbing FlightAware ADS-B
Tue 07:48:03 AM 51.4848 -0.5716 302° West 187 215 2,900 1,846 Climbing FlightAware ADS-B
Tue 07:48:08 AM 51.4871 -0.5780 300° West 192 221 3,000 1,200 Climbing FlightAware ADS-B
Tue 07:48:13 AM 51.4890 -0.5840 297° West 197 227 3,100 1,800 Climbing FlightAware ADS-B
Tue 07:48:28 AM 51.4955 -0.6047 297° West 211 243 3,600 2,000 Climbing FlightAware ADS-B
Tue 07:48:43 AM 51.5027 -0.6264 298° West 218 251 4,100 1,800 Climbing FlightAware ADS-B
Tue 07:48:58 AM 51.5104 -0.6492 299° West 236 272 4,500 1,500 Climbing FlightAware ADS-B
Tue 07:49:07 AM 51.5153 -0.6627 300° West 248 285 4,700 1,385 Climbing FlightAware ADS-B
Tue 07:49:11 AM 51.5178 -0.6686 304° West 252 290 4,800 1,500 Climbing FlightAware ADS-B
Tue 07:49:15 AM 51.5206 -0.6742 309° West 254 292 4,900 1,714 Climbing FlightAware ADS-B
Tue 07:49:18 AM 51.5230 -0.6784 313° West 255 293 5,000 3,000 Climbing FlightAware ADS-B
Tue 07:49:21 AM 51.5258 -0.6824 318° Northwest 255 293 5,200 3,000 Climbing FlightAware ADS-B
Tue 07:49:26 AM 51.5308 -0.6879 326° Northwest 254 292 5,400 2,667 Climbing FlightAware ADS-B
Tue 07:49:30 AM 51.5350 -0.6912 334° Northwest 253 291 5,600 3,000 Climbing FlightAware ADS-B
Tue 07:49:34 AM 51.5395 -0.6934 343° North 252 290 5,800 3,000 Climbing FlightAware ADS-B
Tue 07:49:38 AM 51.5437 -0.6946 350° North 252 290 6,000 3,000 Climbing FlightAware ADS-B
Tue 07:49:42 AM 51.5487 -0.6951 356° North 253 291 6,200 3,429 Climbing FlightAware ADS-B
Tue 07:49:45 AM 51.5526 -0.6948 North 254 292 6,400 2,727 Climbing FlightAware ADS-B
Tue 07:49:53 AM 51.5615 -0.6929 North 259 298 6,700 1,875 Climbing FlightAware ADS-B
Tue 07:50:01 AM 51.5712 -0.6906 North 266 306 6,900 1,091 Climbing FlightAware ADS-B
Tue 07:50:04 AM 51.5759 -0.6900 North 268 308 6,900  Level FlightAware ADS-B
Tue 07:50:08 AM 51.5803 -0.6898 North 267 307 6,900  Level FlightAware ADS-B
Tue 07:50:11 AM 51.5840 -0.6899 359° North 265 305 6,900 353 Level FlightAware ADS-B
Tue 07:50:25 AM 51.6004 -0.6901 360° North 265 305 7,000 400 Climbing FlightAware ADS-B
Tue 07:50:41 AM 51.6208 -0.6908 359° North 264 304 7,100 1,125 Climbing FlightAware ADS-B
Tue 07:50:57 AM 51.6398 -0.6916 358° North 268 308 7,600 2,323 Climbing FlightAware ADS-B
Tue 07:51:12 AM 51.6590 -0.6922 359° North 270 311 8,300 3,000 Climbing FlightAware ADS-B
Tue 07:51:27 AM 51.6778 -0.6928 359° North 270 311 9,100 3,000 Climbing FlightAware ADS-B
Tue 07:51:42 AM 51.6973 -0.6933 359° North 272 313 9,800 2,286 Climbing FlightAware ADS-B
Tue 07:52:09 AM 51.7312 -0.6941 359° North 285 328 10,700 1,895 Climbing FlightAware ADS-B
Tue 07:52:20 AM 51.7458 -0.6922 North 297 342 11,000 1,171 Climbing FlightAware ADS-B
Tue 07:52:50 AM 51.7895 -0.6801 10° North 332 382 11,500 1,180 Climbing FlightAware ADS-B
Tue 07:53:21 AM 51.8381 -0.6660 10° North 361 415 12,200 1,770 Climbing FlightAware ADS-B
Tue 07:53:51 AM 51.8903 -0.6506 10° North 377 434 13,300 2,262 Climbing FlightAware ADS-B
Tue 07:54:22 AM 51.9423 -0.6342 11° North 382 440 14,500 2,400 Climbing FlightAware ADS-B
Tue 07:54:51 AM 51.9914 -0.6057 20° North 392 451 15,700 2,441 Climbing FlightAware ADS-B
Tue 07:55:21 AM 52.0428 -0.5743 21° North 397 457 16,900 2,211 Climbing FlightAware ADS-B
Tue 07:55:29 AM 52.0574 -0.5676 16° North 400 460 17,100 1,895 Climbing FlightAware ADS-B
Tue 07:55:40 AM 52.0769 -0.5639 North 402 463 17,500 1,800 Climbing FlightAware ADS-B
Tue 07:55:49 AM 52.0931 -0.5663 355° North 402 463 17,700 2,000 Climbing FlightAware ADS-B
Tue 07:55:58 AM 52.1102 -0.5746 343° North 399 459 18,100 2,267 Climbing FlightAware ADS-B
Tue 07:56:34 AM 52.1703 -0.6139 338° Northwest 397 457 19,400 1,909 Climbing FlightAware ADS-B
Tue 07:57:04 AM 52.2225 -0.6480 338° Northwest 408 470 20,200 1,826 Climbing FlightAware ADS-B
Tue 07:57:20 AM 52.2516 -0.6654 340° North 408 470 20,800 1,680 Climbing FlightAware ADS-B
Tue 07:57:54 AM 52.3127 -0.6942 344° North 420 483 21,600 1,569 Climbing FlightAware ADS-B
Tue 07:58:25 AM 52.3717 -0.7217 344° North 424 488 22,500 1,742 Climbing FlightAware ADS-B
Tue 07:58:56 AM 52.4296 -0.7494 344° North 427 491 23,400 1,574 Climbing FlightAware ADS-B
Tue 07:59:26 AM 52.4871 -0.7773 344° North 434 499 24,100 1,569 Climbing FlightAware ADS-B
Tue 08:00:01 AM 52.5556 -0.8096 344° North 438 504 25,100 1,701 Climbing FlightAware ADS-B
Tue 08:00:33 AM 52.6161 -0.8418 342° North 438 504 26,000 1,385 Climbing FlightAware ADS-B
Tue 08:01:06 AM 52.6807 -0.8717 344° North 444 511 26,600 1,343 Climbing FlightAware ADS-B
Tue 08:01:40 AM 52.7486 -0.9046 344° North 446 513 27,500 1,385 Climbing FlightAware ADS-B
Tue 08:02:24 AM 52.8270 -0.9610 337° Northwest 438 504 28,400 1,571 Climbing FlightAware ADS-B
Tue 08:03:04 AM 52.8960 -1.0350 327° Northwest 438 504 29,700 1,129 Climbing FlightAware ADS-B
Tue 08:03:49 AM 52.9700 -1.1250 324° Northwest 439 505 30,000 212 Climbing FlightAware ADS-B
Tue 08:04:29 AM 53.0350 -1.2030 324° Northwest 439 505 30,000 71 Level FlightAware ADS-B
Tue 08:05:14 AM 53.1100 -1.2940 324° Northwest 438 504 30,100 419 Climbing FlightAware ADS-B
Tue 08:05:55 AM 53.1730 -1.3730 323° Northwest 427 491 30,600 808 Climbing FlightAware ADS-B
Tue 08:06:06 AM 53.1956 -1.3987 326° Northwest 434 499 30,800 1,151 Climbing FlightAware ADS-B
Tue 08:07:08 AM 53.3025 -1.5047 329° Northwest 434 499 32,000 742 Climbing FlightAware ADS-B
Tue 08:07:43 AM 53.3630 -1.5645 329° Northwest 434 499 32,000  Level FlightAware ADS-B
Tue 08:08:23 AM 53.4332 -1.6339 330° Northwest 434 499 32,000  Level FlightAware ADS-B
Tue 08:09:09 AM 53.5122 -1.7121 330° Northwest 437 503 32,000  Level FlightAware ADS-B
Tue 08:09:39 AM 53.5648 -1.7640 330° Northwest 436 502 32,000  Level FlightAware ADS-B
Tue 08:10:13 AM 53.6224 -1.8217 329° Northwest 437 503 32,000  Level FlightAware ADS-B
Tue 08:10:48 AM 53.6850 -1.8800 329° Northwest 437 503 32,000  Level FlightAware ADS-B
Tue 08:10:52 AM 53.6934 -1.8868 329° Northwest 468 539 32,000  Level FlightAware UK
Tue 08:11:18 AM 53.7310 -1.9170 335° Northwest 438 504 32,000  Level FlightAware ADS-B
Tue 08:12:04 AM 53.8240 -1.9942 335° Northwest 472 543 32,000  Level FlightAware UK
Tue 08:12:10 AM 53.8320 -2.0010 335° Northwest 437 503 32,000  Level FlightAware ADS-B
Tue 08:12:40 AM 53.8886 -2.0502 335° Northwest 478 550 32,000  Level FlightAware UK
Tue 08:12:51 AM 53.9070 -2.0660 335° Northwest 435 501 32,000  Level FlightAware ADS-B
Tue 08:13:32 AM 53.9800 -2.1220 336° Northwest 432 497 32,000  Level FlightAware ADS-B
Tue 08:14:14 AM 54.0560 -2.1720 339° North 428 493 32,000  Level FlightAware ADS-B
Tue 08:14:55 AM 54.1380 -2.2110 344° North 426 490 32,000  Level FlightAware ADS-B
Tue 08:15:40 AM 54.2220 -2.2500 345° North 425 489 32,000  Level FlightAware ADS-B
Tue 08:16:18 AM 54.2930 -2.2840 344° North 424 488 32,000  Level FlightAware ADS-B
Tue 08:17:00 AM 54.3740 -2.3210 345° North 425 489 32,000  Level FlightAware ADS-B
Tue 08:17:44 AM 54.4530 -2.3590 344° North 426 490 32,000  Level FlightAware ADS-B
Tue 08:18:27 AM 54.5350 -2.3970 345° North 427 491 32,000  Level FlightAware ADS-B
Tue 08:19:08 AM 54.6130 -2.4500 339° North 426 490 32,000  Level FlightAware ADS-B
Tue 08:19:51 AM 54.6790 -2.5420 321° Northwest 425 489 32,000  Level FlightAware ADS-B
Tue 08:20:42 AM 54.7530 -2.6540 319° Northwest 427 491 32,000  Level FlightAware ADS-B
Tue 08:21:28 AM 54.8223 -2.7615 319° Northwest 470 541 32,000  Level FlightAware UK
Tue 08:21:30 AM 54.8230 -2.7630 319° Northwest 427 491 32,000  Level FlightAware ADS-B
Tue 08:22:12 AM 54.8860 -2.8600 318° Northwest 426 490 32,000  Level FlightAware ADS-B
Tue 08:22:54 AM 54.9440 -2.9510 318° Northwest 419 482 32,000  Level FlightAware ADS-B
Tue 08:23:29 AM 54.9980 -3.0350 318° Northwest 419 482 32,000  Level FlightAware ADS-B
Tue 08:24:03 AM 55.0500 -3.1169 318° Northwest 472 543 32,000  Level FlightAware UK
Tue 08:24:19 AM 55.0700 -3.1480 318° Northwest 416 479 32,000  Level FlightAware ADS-B
Tue 08:24:59 AM 55.1280 -3.2400 318° Northwest 415 478 32,000  Level FlightAware ADS-B
Tue 08:25:33 AM 55.1797 -3.3214 318° Northwest 468 539 32,000  Level FlightAware UK
Tue 08:25:40 AM 55.1850 -3.3310 318° Northwest 413 475 32,000  Level FlightAware ADS-B
Tue 08:26:22 AM 55.2480 -3.4300 318° Northwest 417 480 32,000  Level FlightAware ADS-B
Tue 08:27:00 AM 55.2920 -3.4960 320° Northwest 416 479 32,000  Level FlightAware ADS-B
Tue 08:27:49 AM 55.3620 -3.6020 319° Northwest 414 476 32,000  Level FlightAware ADS-B
Tue 08:28:27 AM 55.4260 -3.7000 319° Northwest 413 475 32,000  Level FlightAware ADS-B
Tue 08:29:09 AM 55.4907 -3.7994 319° Northwest 464 534 32,000  Level FlightAware UK
Tue 08:29:10 AM 55.4810 -3.7840 319° Northwest 412 474 32,000  Level FlightAware ADS-B
Tue 08:29:52 AM 55.5440 -3.8810 319° Northwest 412 474 32,000  Level FlightAware ADS-B
Tue 08:30:32 AM 55.6070 -3.9790 319° Northwest 412 474 32,000  Level FlightAware ADS-B
Tue 08:31:19 AM 55.6730 -4.0820 319° Northwest 412 474 32,000  Level FlightAware ADS-B
Tue 08:31:54 AM 55.7220 -4.1580 319° Northwest 411 473 32,000  Level FlightAware ADS-B
Tue 08:32:03 AM 55.7387 -4.1849 319° Northwest 466 536 32,000  Level FlightAware UK
Tue 08:32:39 AM 55.7898 -4.2652 319° Northwest 466 536 32,000  Level FlightAware UK
Tue 08:32:40 AM 55.7870 -4.2610 319° Northwest 411 473 32,000  Level FlightAware ADS-B
Tue 08:33:21 AM 55.8496 -4.3590 319° Northwest 464 534 32,000  Level FlightAware UK
Tue 08:33:24 AM 55.8510 -4.3620 319° Northwest 410 472 32,000  Level FlightAware ADS-B
Tue 08:34:04 AM 55.9080 -4.4530 318° Northwest 411 473 32,000  Level FlightAware ADS-B
Tue 08:34:39 AM 55.9598 -4.5345 318° Northwest 466 536 32,000  Level FlightAware UK
Tue 08:34:44 AM 55.9650 -4.5430 318° Northwest 411 473 32,000  Level FlightAware ADS-B
Tue 08:35:29 AM 56.0290 -4.6450 318° Northwest 411 473 32,000  Level FlightAware ADS-B
Tue 08:36:10 AM 56.0850 -4.7350 318° Northwest 410 472 32,000  Level FlightAware ADS-B
Tue 08:36:49 AM 56.1410 -4.8260 318° Northwest 409 471 32,000  Level FlightAware ADS-B
Tue 08:36:51 AM 56.1461 -4.8335 318° Northwest 468 539 32,000  Level FlightAware UK
Tue 08:37:27 AM 56.1966 -4.9151 318° Northwest 468 539 32,000  Level FlightAware UK
Tue 08:37:34 AM 56.2040 -4.9280 318° Northwest 409 471 32,000  Level FlightAware ADS-B
Tue 08:38:09 AM 56.2551 -5.0102 318° Northwest 466 536 32,000  Level FlightAware UK
Tue 08:38:14 AM 56.2600 -5.0190 318° Northwest 409 471 32,000  Level FlightAware ADS-B
Tue 08:38:59 AM 56.3230 -5.1210 318° Northwest 409 471 32,000  Level FlightAware ADS-B
Tue 08:39:39 AM 56.3806 -5.2157 318° Northwest 466 536 32,000  Level FlightAware UK
Tue 08:39:42 AM 56.3790 -5.2130 318° Northwest 402 463 32,000  Level FlightAware ADS-B
Tue 08:40:15 AM 56.4307 -5.2981 318° Northwest 468 539 32,000  Level FlightAware UK
Tue 08:40:19 AM 56.4340 -5.3040 318° Northwest 402 463 32,000  Level FlightAware ADS-B
Tue 08:41:04 AM 56.4960 -5.4050 318° Northwest 401 461 32,000  Level FlightAware ADS-B
Tue 08:41:45 AM 56.5553 -5.5047 318° Northwest 468 539 32,000  Level FlightAware UK
Tue 08:41:49 AM 56.5590 -5.5110 318° Northwest 401 461 32,000  Level FlightAware ADS-B
Tue 08:42:29 AM 56.6140 -5.6030 317° Northwest 400 460 32,000  Level FlightAware ADS-B
Tue 08:43:14 AM 56.6760 -5.7070 317° Northwest 399 459 32,000  Level FlightAware ADS-B
Tue 08:43:45 AM 56.7204 -5.7810 317° Northwest 466 536 32,000  Level FlightAware UK
Tue 08:43:54 AM 56.7310 -5.7990 317° Northwest 399 459 32,000  Level FlightAware ADS-B
Tue 08:44:34 AM 56.7840 -5.8890 317° Northwest 398 458 32,000  Level FlightAware ADS-B
Tue 08:45:15 AM 56.8436 -5.9897 317° Northwest 466 536 32,000  Level FlightAware UK
Tue 08:45:19 AM 56.8470 -5.9960 317° Northwest 398 458 32,000  Level FlightAware ADS-B
Tue 08:45:54 AM 56.8940 -6.0770 317° Northwest 398 458 32,000  Level FlightAware ADS-B
Tue 08:46:34 AM 56.9480 -6.1690 317° Northwest 398 458 32,000  Level FlightAware ADS-B
Tue 08:47:15 AM 57.0070 -6.2699 317° Northwest 464 534 32,000  Level FlightAware UK
Tue 08:47:24 AM 57.0170 -6.2880 317° Northwest 404 465 32,000  Level FlightAware ADS-B
Tue 08:47:59 AM 57.0620 -6.3640 317° Northwest 399 459 32,000  Level FlightAware ADS-B
Tue 08:48:46 AM 57.1280 -6.4800 316° Northwest 404 465 32,000  Level FlightAware ADS-B
Tue 08:49:26 AM 57.1830 -6.5760 317° Northwest 405 466 32,000  Level FlightAware ADS-B
Tue 08:50:06 AM 57.2370 -6.6700 317° Northwest 405 466 32,000  Level FlightAware ADS-B
Tue 08:50:09 AM 57.2428 -6.6800 317° Northwest 468 539 32,000  Level FlightAware UK
Tue 08:50:39 AM 57.2836 -6.7513 317° Northwest 468 539 32,000  Level FlightAware UK
Tue 08:50:51 AM 57.2970 -6.7750 317° Northwest 406 467 32,000  Level FlightAware ADS-B
Tue 08:51:31 AM 57.3490 -6.8680 316° Northwest 406 467 32,000  Level FlightAware ADS-B
Tue 08:52:16 AM 57.4120 -6.9800 316° Northwest 405 466 32,000  Level FlightAware ADS-B
Tue 08:53:01 AM 57.4740 -7.0890 317° Northwest 405 466 32,000  Level FlightAware ADS-B
Tue 08:53:36 AM 57.5200 -7.1730 316° Northwest 405 466 32,000  Level FlightAware ADS-B
Tue 08:54:22 AM 57.5810 -7.2830 316° Northwest 405 466 32,000  Level FlightAware ADS-B
Tue 08:55:06 AM 57.6410 -7.3920 316° Northwest 405 466 32,000  Level FlightAware ADS-B
Tue 08:55:45 AM 57.6955 -7.4889 316° Northwest 466 536 32,000  Level FlightAware UK
Tue 08:55:46 AM 57.6940 -7.4870 316° Northwest 405 466 32,000  Level FlightAware ADS-B
Tue 08:56:26 AM 57.7480 -7.5860 316° Northwest 405 466 32,000  Level FlightAware ADS-B
Tue 08:57:06 AM 57.8020 -7.6840 316° Northwest 405 466 32,000  Level FlightAware ADS-B
Tue 08:57:52 AM 57.8630 -7.7980 315° West 405 466 32,000  Level FlightAware ADS-B
Tue 08:58:26 AM 57.9114 -7.8858 315° West 468 539 32,000  Level FlightAware UK
Tue 08:58:31 AM 57.9170 -7.8960 315° West 406 467 32,000  Level FlightAware ADS-B
Tue 08:59:06 AM 57.9640 -7.9840 315° West 405 466 32,000  Level FlightAware ADS-B
Tue 08:59:46 AM 58.0170 -8.0820 316° Northwest 405 466 32,000  Level FlightAware ADS-B
Tue 09:00:26 AM 58.0711 -8.1839 316° Northwest 466 536 32,000  Level FlightAware UK
Tue 09:00:27 AM 58.0700 -8.1830 316° Northwest 406 467 32,000  Level FlightAware ADS-B
Tue 09:01:06 AM 58.1230 -8.2820 315° West 407 468 32,000  Level FlightAware ADS-B
Tue 09:01:51 AM 58.1820 -8.3920 316° Northwest 407 468 32,000  Level FlightAware ADS-B
Tue 09:02:32 AM 58.2360 -8.4970 314° West 408 470 32,000  Level FlightAware ADS-B
Tue 09:03:08 AM 58.2858 -8.5912 314° West 466 536 32,000  Level FlightAware UK
Tue 09:03:17 AM 58.2950 -8.6090 314° West 408 470 32,000  Level FlightAware ADS-B
Tue 09:03:57 AM 58.3490 -8.7120 315° West 408 470 32,000  Level FlightAware ADS-B
Tue 09:04:38 AM 58.4053 -8.8202 315° West 466 536 32,000  Level FlightAware UK
Tue 09:04:54 AM 58.4190 -8.8490 315° West 408 470 32,000  Level FlightAware ADS-B
Tue 09:05:33 AM 58.4750 -8.9560 315° West 409 471 32,000  Level FlightAware ADS-B
Tue 09:06:15 AM 58.5200 -9.0440 314° West 409 471 32,000  Level FlightAware ADS-B
Tue 09:07:03 AM 58.5730 -9.1500 314° West 409 471 32,000  Level FlightAware ADS-B
Tue 09:07:34 AM 58.6310 -9.2610 315° West 413 475 32,000  Level FlightAware ADS-B
Tue 09:08:19 AM 58.6960 -9.3890 314° West 415 478 32,000  Level FlightAware ADS-B
Tue 09:09:03 AM 58.7560 -9.5080 314° West 415 478 32,000  Level FlightAware ADS-B
Tue 09:09:43 AM 58.8060 -9.6080 314° West 416 479 32,000  Level FlightAware ADS-B
Tue 09:10:58 AM 58.8990 -9.7980 314° West 417 480 32,000  Level FlightAware ADS-B
Tue 09:11:54 AM 58.9760 -9.9510 314° West 418 481 32,000  Level FlightAware ADS-B
Tue 09:12:26 AM 59.0080 -10.0230 311° West 416 479 32,000  Level FlightAware ADS-B
Tue 09:13:14 AM 59.0750 -10.1850 309° West 417 480 32,000  Level FlightAware ADS-B
Tue 09:13:49 AM 59.1270 -10.2920 313° West 418 481 32,000  Level FlightAware ADS-B
Tue 09:14:33 AM 59.1670 -10.4030 305° West 414 476 32,000  Level FlightAware ADS-B
Tue 09:16:25 AM 59.3000 -10.7710 305° West 420 483 32,000  Level FlightAware ADS-B
Tue 09:17:22 AM 59.3580 -10.9360 305° West 420 483 32,000  Level FlightAware ADS-B
Tue 09:18:10 AM 59.4030 -11.0660 304° West 420 483 32,000  Level FlightAware ADS-B
Tue 09:18:45 AM 59.4350 -11.1600 304° West 420 483 32,000  Level FlightAware ADS-B
Tue 09:19:34 AM 59.4800 -11.2920 304° West 420 483 32,000  Level FlightAware ADS-B
Tue 09:20:24 AM 59.5260 -11.4270 304° West 420 483 32,000  Level FlightAware ADS-B
Tue 09:21:04 AM 59.5630 -11.5350 304° West 420 483 32,000  Level FlightAware ADS-B
Tue 09:23:00 AM 59.6183 -11.9608 285° West  Level Estimated
Tue 09:24:00 AM 59.6464 -12.1816 284° West  Level Estimated
Tue 09:25:00 AM 59.6740 -12.4027 284° West  Level Estimated
Tue 09:26:00 AM 59.7014 -12.6242 284° West  Level Estimated
Tue 09:27:00 AM 59.7283 -12.8461 284° West  Level Estimated
Tue 09:28:00 AM 59.7549 -13.0683 283° West  Level Estimated
Tue 09:29:00 AM 59.7811 -13.2909 283° West  Level Estimated
Tue 09:30:00 AM 59.8069 -13.5138 283° West  Level Estimated
Tue 09:31:00 AM 59.8323 -13.7371 283° West  Level Estimated
Tue 09:32:00 AM 59.8574 -13.9607 283° West  Level Estimated
Tue 09:33:00 AM 59.8821 -14.1846 282° West  Level Estimated
Tue 09:34:00 AM 59.9064 -14.4089 282° West  Level Estimated
Tue 09:35:00 AM 59.9303 -14.6335 282° West  Level Estimated
Tue 09:36:00 AM 59.9538 -14.8584 282° West  Level Estimated
Tue 09:37:00 AM 59.9770 -15.0836 282° West  Level Estimated
Tue 09:38:00 AM 59.9997 -15.3092 282° West  Level Estimated
Tue 09:39:00 AM 60.0221 -15.5350 281° West  Level Estimated
Tue 09:40:00 AM 60.0441 -15.7612 281° West  Level Estimated
Tue 09:41:00 AM 60.0657 -15.9877 281° West  Level Estimated
Tue 09:41:38 AM 60.8830 -15.6840 281° West 422 486 32,000  Level FlightAware ADS-B
Tue 09:42:18 AM 60.9240 -15.8240 301° West 424 488 32,000  Level FlightAware ADS-B
Tue 09:42:57 AM 60.9640 -15.9640 301° West 425 489 32,000  Level FlightAware ADS-B
Tue 09:43:43 AM 61.0090 -16.1230 300° West 425 489 32,000  Level FlightAware ADS-B
Tue 09:44:25 AM 61.0510 -16.2700 301° West 426 490 32,000  Level FlightAware ADS-B
Tue 09:44:58 AM 61.0830 -16.3850 300° West 426 490 32,000  Level FlightAware ADS-B
Tue 09:45:28 AM 61.1120 -16.4900 300° West 427 491 32,000  Level FlightAware ADS-B
Tue 09:46:57 AM 61.1880 -16.7640 300° West 428 493 32,000  Level FlightAware ADS-B
Tue 09:47:36 AM 61.2370 -16.9430 300° West 428 493 32,000  Level FlightAware ADS-B
Tue 09:48:14 AM 61.2750 -17.0800 300° West 428 493 32,000  Level FlightAware ADS-B
Tue 09:49:00 AM 61.3190 -17.2440 299° West 428 493 32,000  Level FlightAware ADS-B
Tue 09:49:36 AM 61.3540 -17.3750 299° West 427 491 32,000  Level FlightAware ADS-B
Tue 09:50:34 AM 61.4030 -17.5550 300° West 427 491 32,000  Level FlightAware ADS-B
Tue 09:51:05 AM 61.4390 -17.6930 299° West 425 489 32,000  Level FlightAware ADS-B
Tue 09:51:57 AM 61.4870 -17.8760 299° West 423 487 32,000  Level FlightAware ADS-B
Tue 09:52:36 AM 61.5250 -18.0190 299° West 422 486 32,000  Level FlightAware ADS-B
Tue 09:53:18 AM 61.5640 -18.1700 299° West 420 483 32,000  Level FlightAware ADS-B
Tue 09:53:58 AM 61.6010 -18.3120 299° West 418 481 32,000  Level FlightAware ADS-B
Tue 09:54:36 AM 61.6350 -18.4460 298° West 416 479 32,000  Level FlightAware ADS-B
Tue 09:55:05 AM 61.6620 -18.5500 299° West 415 478 32,000  Level FlightAware ADS-B
Tue 09:55:56 AM 61.7020 -18.7100 298° West 413 475 32,000  Level FlightAware ADS-B
Tue 09:56:34 AM 61.7410 -18.8660 298° West 412 474 32,000  Level FlightAware ADS-B
Tue 09:57:12 AM 61.7750 -19.0000 298° West 412 474 32,000  Level FlightAware ADS-B
Tue 09:57:55 AM 61.8120 -19.1500 298° West 412 474 32,000  Level FlightAware ADS-B
Tue 09:58:39 AM 61.8510 -19.3070 298° West 412 474 32,000  Level FlightAware ADS-B
Tue 09:59:21 AM 61.8880 -19.4590 297° West 412 474 32,000  Level FlightAware ADS-B
Tue 10:00:10 AM 61.9280 -19.6210 298° West 413 475 32,000  Level FlightAware ADS-B
Tue 10:01:14 AM 61.9870 -19.8660 297° West 414 476 32,000  Level FlightAware ADS-B
Tue 10:02:22 AM 62.0340 -20.1150 292° West 414 476 32,000  Level FlightAware ADS-B
Tue 10:03:05 AM 62.0570 -20.2800 287° West 414 476 32,000  Level FlightAware ADS-B
Tue 10:03:42 AM 62.0780 -20.4350 286° West 414 476 32,000  Level FlightAware ADS-B
Tue 10:04:29 AM 62.1020 -20.6150 286° West 414 476 32,000  Level FlightAware ADS-B
Tue 10:05:10 AM 62.1240 -20.7790 286° West 414 476 32,000  Level FlightAware ADS-B
Tue 10:05:50 AM 62.1390 -20.8930 286° West 414 476 32,000  Level FlightAware ADS-B
Tue 10:06:30 AM 62.1650 -21.0890 286° West 414 476 32,000  Level FlightAware ADS-B
Tue 10:07:10 AM 62.1850 -21.2430 286° West 412 474 32,000  Level FlightAware ADS-B
Tue 10:07:46 AM 62.2040 -21.3860 286° West 410 472 32,000  Level FlightAware ADS-B
Tue 10:08:34 AM 62.2280 -21.5780 285° West 410 472 32,000  Level FlightAware ADS-B
Tue 10:09:14 AM 62.2480 -21.7340 285° West 410 472 32,000  Level FlightAware ADS-B
Tue 10:10:02 AM 62.2710 -21.9190 285° West 409 471 32,000  Level FlightAware ADS-B
Tue 10:11:38 AM 62.3100 -22.2410 285° West 406 467 32,000  Level FlightAware ADS-B
Tue 10:12:35 AM 62.3440 -22.5200 285° West 403 464 32,000  Level FlightAware ADS-B
Tue 10:13:15 AM 62.3610 -22.6650 284° West 402 463 32,000  Level FlightAware ADS-B
Tue 10:13:58 AM 62.3810 -22.8400 284° West 401 461 32,000  Level FlightAware ADS-B
Tue 10:14:38 AM 62.4000 -22.9950 285° West 402 463 32,000  Level FlightAware ADS-B
Tue 10:14:59 AM 62.4090 -23.0780 283° West 402 463 32,000  Level FlightAware ADS-B
Tue 10:15:46 AM 62.4230 -23.2020 284° West 403 464 32,000  Level FlightAware ADS-B
Tue 10:16:30 AM 62.4490 -23.4300 284° West 405 466 32,000  Level FlightAware ADS-B
Tue 10:17:14 AM 62.4680 -23.5990 284° West 406 467 32,000  Level FlightAware ADS-B
Tue 10:17:55 AM 62.4860 -23.7660 283° West 408 470 32,000  Level FlightAware ADS-B
Tue 10:18:34 AM 62.5030 -23.9200 284° West 409 471 32,000  Level FlightAware ADS-B
Tue 10:19:18 AM 62.5220 -24.0950 283° West 410 472 32,000  Level FlightAware ADS-B
Tue 10:20:00 AM 62.5390 -24.2630 282° West 412 474 32,000  Level FlightAware ADS-B
Tue 10:20:56 AM 62.5610 -24.4690 283° West 413 475 32,000  Level FlightAware ADS-B
Tue 10:21:34 AM 62.5790 -24.6420 283° West 413 475 32,000  Level FlightAware ADS-B
Tue 10:22:18 AM 62.5970 -24.8180 283° West 414 476 32,000  Level FlightAware ADS-B
Tue 10:23:00 AM 62.6140 -24.9880 282° West 415 478 32,000  Level FlightAware ADS-B
Tue 10:23:46 AM 62.6320 -25.1760 282° West 417 480 32,000  Level FlightAware ADS-B
Tue 10:24:26 AM 62.6480 -25.3400 282° West 417 480 32,000  Level FlightAware ADS-B
Tue 10:25:03 AM 62.6630 -25.4920 282° West 418 481 32,000  Level FlightAware ADS-B
Tue 10:25:52 AM 62.6820 -25.6940 282° West 418 481 32,000  Level FlightAware ADS-B
Tue 10:26:31 AM 62.6970 -25.8490 282° West 418 481 32,000  Level FlightAware ADS-B
Tue 10:27:12 AM 62.7120 -26.0160 281° West 417 480 32,000  Level FlightAware ADS-B
Tue 10:27:56 AM 62.7290 -26.2000 281° West 417 480 32,000  Level FlightAware ADS-B
Tue 10:28:37 AM 62.7440 -26.3730 281° West 415 478 32,000  Level FlightAware ADS-B
Tue 10:29:21 AM 62.7600 -26.5530 281° West 415 478 32,000  Level FlightAware ADS-B
Tue 10:29:58 AM 62.7730 -26.7010 281° West 415 478 32,000  Level FlightAware ADS-B
Tue 10:30:58 AM 62.7940 -26.9480 281° West 413 475 32,000  Level FlightAware ADS-B
Tue 10:31:40 AM 62.8080 -27.1210 280° West 413 475 32,000  Level FlightAware ADS-B
Tue 10:32:39 AM 62.8260 -27.3350 281° West 411 473 32,000  Level FlightAware ADS-B
Tue 10:33:16 AM 62.8360 -27.4640 280° West 411 473 32,000  Level FlightAware ADS-B
Tue 10:34:05 AM 62.8500 -27.6350 280° West 411 473 32,000  Level FlightAware ADS-B
Tue 10:34:44 AM 62.8610 -27.7710 280° West 411 473 32,000  Level FlightAware ADS-B
Tue 10:35:21 AM 62.8710 -27.9010 280° West 411 473 32,000  Level FlightAware ADS-B
Tue 10:36:07 AM 62.8950 -28.2120 280° West 412 474 32,000  Level FlightAware ADS-B
Tue 10:36:46 AM 62.9060 -28.3660 279° West 411 473 32,000  Level FlightAware ADS-B
Tue 10:37:27 AM 62.9170 -28.5100 280° West 411 473 32,000  Level FlightAware ADS-B
Tue 10:38:10 AM 62.9320 -28.7190 279° West 413 475 32,000  Level FlightAware ADS-B
Tue 10:39:14 AM 62.9480 -28.9560 279° West 413 475 32,000  Level FlightAware ADS-B
Tue 10:39:53 AM 62.9610 -29.1440 279° West 414 476 32,000  Level FlightAware ADS-B
Tue 10:40:33 AM 62.9720 -29.3050 279° West 415 478 32,000  Level FlightAware ADS-B
Tue 10:41:14 AM 62.9820 -29.4540 278° West 415 478 32,000  Level FlightAware ADS-B
Tue 10:42:10 AM 62.9990 -29.7170 278° West 416 479 32,000  Level FlightAware ADS-B
Tue 10:42:58 AM 63.0120 -29.9170 278° West 417 480 32,000  Level FlightAware ADS-B
Tue 10:43:40 AM 63.0300 -30.0880 283° West 424 488 32,000  Level FlightAware ADS-B
Tue 10:44:20 AM 63.0520 -30.2560 286° West 425 489 32,000  Level FlightAware ADS-B
Tue 10:45:00 AM 63.0750 -30.4200 287° West 427 491 32,000  Level FlightAware ADS-B
Tue 10:45:39 AM 63.0930 -30.5590 286° West 427 491 32,000  Level FlightAware ADS-B
Tue 10:46:26 AM 63.1240 -30.7810 287° West 429 494 32,000  Level FlightAware ADS-B
Tue 10:47:07 AM 63.1430 -30.9300 286° West 429 494 32,000  Level FlightAware ADS-B
Tue 10:47:44 AM 63.1600 -31.0630 286° West 429 494 32,000  Level FlightAware ADS-B
Tue 10:48:32 AM 63.1830 -31.2350 287° West 429 494 32,000  Level FlightAware ADS-B
Tue 10:49:06 AM 63.1980 -31.3570 285° West 429 494 32,000  Level FlightAware ADS-B
Tue 10:49:54 AM 63.2210 -31.5300 287° West 429 494 32,000  Level FlightAware ADS-B
Tue 10:50:31 AM 63.2380 -31.6630 286° West 429 494 32,000  Level FlightAware ADS-B
Tue 10:51:22 AM 63.2620 -31.8470 286° West 429 494 32,000  Level FlightAware ADS-B
Tue 10:51:59 AM 63.2790 -31.9810 286° West 429 494 32,000  Level FlightAware ADS-B
Tue 10:52:36 AM 63.2960 -32.1140 286° West 429 494 32,000  Level FlightAware ADS-B
Tue 10:53:26 AM 63.3190 -32.2950 286° West 429 494 32,000  Level FlightAware ADS-B
Tue 10:54:02 AM 63.3360 -32.4250 286° West 429 494 32,000  Level FlightAware ADS-B
Tue 10:54:48 AM 63.3570 -32.5910 286° West 429 494 32,000  Level FlightAware ADS-B
Tue 10:55:29 AM 63.3760 -32.7390 286° West 429 494 32,000  Level FlightAware ADS-B
Tue 10:56:16 AM 63.3980 -32.9090 286° West 429 494 32,000  Level FlightAware ADS-B
Tue 10:58:00 AM 63.3693 -33.3740 262° West  Level Estimated
Tue 10:59:00 AM 63.3520 -33.6419 262° West  Level Estimated
Tue 11:00:00 AM 63.3342 -33.9094 262° West  Level Estimated
Tue 11:01:00 AM 63.3159 -34.1766 261° West  Level Estimated
Tue 11:02:00 AM 63.2972 -34.4435 261° West  Level Estimated
Tue 11:03:00 AM 63.2779 -34.7100 261° West  Level Estimated
Tue 11:04:00 AM 63.2581 -34.9761 261° West  Level Estimated
Tue 11:05:00 AM 63.2379 -35.2419 261° West  Level Estimated
Tue 11:06:00 AM 63.2171 -35.5073 260° West  Level Estimated
Tue 11:07:00 AM 63.1959 -35.7723 260° West  Level Estimated
Tue 11:08:00 AM 63.1741 -36.0369 260° West  Level Estimated
Tue 11:09:00 AM 63.1519 -36.3012 260° West  Level Estimated
Tue 11:10:00 AM 63.1292 -36.5650 259° West  Level Estimated
Tue 11:11:00 AM 63.1060 -36.8284 259° West  Level Estimated
Tue 11:12:00 AM 63.0823 -37.0913 259° West  Level Estimated
Tue 11:13:00 AM 63.0581 -37.3539 259° West  Level Estimated
Tue 11:14:00 AM 63.0334 -37.6159 258° West  Level Estimated
Tue 11:15:00 AM 63.0083 -37.8776 258° West  Level Estimated
Tue 11:16:00 AM 62.9827 -38.1388 258° West  Level Estimated
Tue 11:17:00 AM 62.9565 -38.3995 258° West  Level Estimated
Tue 11:18:00 AM 62.9299 -38.6598 257° West  Level Estimated
Tue 11:19:00 AM 62.9029 -38.9196 257° West  Level Estimated
Tue 11:20:00 AM 62.8753 -39.1788 257° West  Level Estimated
Tue 11:21:00 AM 62.8473 -39.4377 257° West  Level Estimated
Tue 11:22:00 AM 62.8188 -39.6960 257° West  Level Estimated
Tue 11:23:00 AM 62.7898 -39.9538 256° West  Level Estimated
Tue 11:24:00 AM 62.7604 -40.2111 256° West  Level Estimated
Tue 11:25:00 AM 62.7305 -40.4679 256° West  Level Estimated
Tue 11:26:00 AM 62.7001 -40.7241 256° West  Level Estimated
Tue 11:27:00 AM 62.6692 -40.9799 255° West  Level Estimated
Tue 11:28:00 AM 62.6379 -41.2350 255° West  Level Estimated
Tue 11:29:00 AM 62.6062 -41.4897 255° West  Level Estimated
Tue 11:30:00 AM 62.5739 -41.7438 255° West  Level Estimated
Tue 11:31:00 AM 62.5412 -41.9973 254° West  Level Estimated
Tue 11:32:00 AM 62.5081 -42.2503 254° West  Level Estimated
Tue 11:33:00 AM 62.4744 -42.5028 254° West  Level Estimated
Tue 11:34:00 AM 62.4404 -42.7546 254° West  Level Estimated
Tue 11:35:00 AM 62.4059 -43.0059 254° West  Level Estimated
Tue 11:36:00 AM 62.3709 -43.2566 253° West  Level Estimated
Tue 11:37:00 AM 62.3355 -43.5067 253° West  Level Estimated
Tue 11:38:00 AM 62.2996 -43.7562 253° West  Level Estimated
Tue 11:39:00 AM 62.2633 -44.0051 253° West  Level Estimated
Tue 11:40:00 AM 62.2265 -44.2534 252° West  Level Estimated
Tue 11:41:00 AM 62.1893 -44.5011 252° West  Level Estimated
Tue 11:42:00 AM 62.1517 -44.7482 252° West  Level Estimated
Tue 11:43:00 AM 62.1136 -44.9947 252° West  Level Estimated
Tue 11:44:00 AM 62.0751 -45.2405 252° West  Level Estimated
Tue 11:45:00 AM 62.0362 -45.4857 251° West  Level Estimated
Tue 11:46:00 AM 61.9968 -45.7303 251° West  Level Estimated
Tue 11:47:00 AM 61.9569 -45.9743 251° West  Level Estimated
Tue 11:48:00 AM 61.9167 -46.2176 251° West  Level Estimated
Tue 11:49:00 AM 61.8760 -46.4603 251° West  Level Estimated
Tue 11:50:00 AM 61.8349 -46.7023 250° West  Level Estimated
Tue 11:51:00 AM 61.7934 -46.9437 250° West  Level Estimated
Tue 11:52:00 AM 61.7514 -47.1844 250° West  Level Estimated
Tue 11:53:00 AM 61.7091 -47.4244 250° West  Level Estimated
Tue 11:53:26 AM 63.0360 -49.8700 249° West 499 574 32,000  Level FlightAware ADS-B
Tue 11:54:00 AM 61.6663 -47.6638 249° West  Level Estimated
Tue 11:54:08 AM 63.0010 -50.0700 249° West 500 575 32,000  Level FlightAware ADS-B
Tue 11:54:53 AM 62.9560 -50.2630 243° Southwest 501 577 32,000  Level FlightAware ADS-B
Tue 11:55:32 AM 62.9120 -50.4440 242° Southwest 501 577 32,000  Level FlightAware ADS-B
Tue 11:56:16 AM 62.8640 -50.6420 242° Southwest 503 579 32,000  Level FlightAware ADS-B
Tue 11:56:54 AM 62.8210 -50.8140 241° Southwest 504 580 32,000  Level FlightAware ADS-B
Tue 11:57:38 AM 62.7720 -51.0110 242° Southwest 504 580 32,000  Level FlightAware ADS-B
Tue 11:58:18 AM 62.7290 -51.1860 242° Southwest 504 580 32,000  Level FlightAware ADS-B
Tue 11:59:00 AM 62.6860 -51.3550 241° Southwest 504 580 32,000  Level FlightAware ADS-B
Tue 11:59:42 AM 62.6340 -51.5590 241° Southwest 501 577 32,000  Level FlightAware ADS-B
Tue 12:00:22 PM 62.5890 -51.7330 241° Southwest 501 577 32,000  Level FlightAware ADS-B
Tue 12:01:06 PM 62.5390 -51.9260 241° Southwest 500 575 32,000  Level FlightAware ADS-B
Tue 12:01:52 PM 62.4910 -52.1100 241° Southwest 499 574 32,000  Level FlightAware ADS-B
Tue 12:02:41 PM 62.4350 -52.3220 240° Southwest 499 574 32,000  Level FlightAware ADS-B
Tue 12:03:42 PM 62.3670 -52.5790 240° Southwest 498 573 32,000  Level FlightAware ADS-B
Tue 12:04:18 PM 62.3320 -52.7110 240° Southwest 498 573 32,000  Level FlightAware ADS-B
Tue 12:05:14 PM 62.2610 -52.9700 240° Southwest 498 573 32,000  Level FlightAware ADS-B
Tue 12:06:02 PM 62.2130 -53.1430 239° Southwest 498 573 32,000  Level FlightAware ADS-B
Tue 12:06:39 PM 62.1750 -53.2760 239° Southwest 498 573 32,000  Level FlightAware ADS-B
Tue 12:07:27 PM 62.1270 -53.4490 239° Southwest 498 573 32,000  Level FlightAware ADS-B
Tue 12:08:08 PM 62.0850 -53.5960 239° Southwest 498 573 32,000  Level FlightAware ADS-B
Tue 12:08:44 PM 62.0490 -53.7250 239° Southwest 498 573 32,000  Level FlightAware ADS-B
Tue 12:09:32 PM 62.0010 -53.8960 239° Southwest 498 573 32,000  Level FlightAware ADS-B
Tue 12:10:17 PM 61.9550 -54.0570 239° Southwest 498 573 32,000  Level FlightAware ADS-B
Tue 12:10:55 PM 61.9170 -54.1930 239° Southwest 498 573 32,000  Level FlightAware ADS-B
Tue 12:11:35 PM 61.8760 -54.3350 239° Southwest 498 573 32,000  Level FlightAware ADS-B
Tue 12:12:21 PM 61.8300 -54.4990 239° Southwest 498 573 32,000  Level FlightAware ADS-B
Tue 12:12:58 PM 61.7930 -54.6300 239° Southwest 498 573 32,000  Level FlightAware ADS-B
Tue 12:13:47 PM 61.7430 -54.8040 239° Southwest 498 573 32,000  Level FlightAware ADS-B
Tue 12:14:23 PM 61.7070 -54.9320 239° Southwest 498 573 32,000  Level FlightAware ADS-B
Tue 12:17:00 PM 61.5458 -55.5174 240° Southwest  Level Estimated
Tue 12:18:00 PM 61.4835 -55.7395 240° Southwest  Level Estimated
Tue 12:19:00 PM 61.4208 -55.9608 239° Southwest  Level Estimated
Tue 12:20:00 PM 61.3578 -56.1811 239° Southwest  Level Estimated
Tue 12:20:15 PM 61.1667 -56.6000 238° Southwest 370 426 32,000  Level Gander Center
Tue 12:21:00 PM 61.2945 -56.4006 239° Southwest  Level Estimated
Tue 12:21:15 PM 61.1000 -56.8500 241° Southwest 500 575 32,000  Level Gander Center
Tue 12:22:00 PM 61.2308 -56.6191 239° Southwest  Level Estimated
Tue 12:22:15 PM 61.0333 -57.1000 241° Southwest 500 575 32,000  Level Gander Center
Tue 12:22:46 PM 60.9667 -57.2000 216° Southwest 500 575 32,000  Level Gander Center
Tue 12:23:00 PM 61.1667 -56.8368 239° Southwest  Level Estimated
Tue 12:23:46 PM 60.9167 -57.4833 250° West 500 575 32,000  Level Gander Center
Tue 12:24:00 PM 61.1023 -57.0536 238° Southwest  Level Estimated
Tue 12:24:46 PM 60.8167 -57.7000 227° Southwest 500 575 32,000  Level Gander Center
Tue 12:25:00 PM 61.0376 -57.2695 238° Southwest  Level Estimated
Tue 12:25:46 PM 60.7500 -57.9167 238° Southwest 500 575 32,500  Level Gander Center
Tue 12:26:46 PM 60.6667 -58.1667 236° Southwest 490 564 33,400 800 Climbing Gander Center
Tue 12:27:46 PM 60.5833 -58.3667 230° Southwest 490 564 34,100 750 Climbing Gander Center
Tue 12:28:46 PM 60.5000 -58.6167 236° Southwest 490 564 34,900 633 Climbing Gander Center
Tue 12:30:46 PM 60.3667 -59.0333 237° Southwest 470 541 36,000 367 Climbing Gander Center
Tue 12:31:46 PM 60.2833 -59.2667 234° Southwest 480 552 36,000  Level Gander Center
Tue 12:32:46 PM 60.2000 -59.4833 232° Southwest 480 552 36,000  Level Gander Center
Tue 12:33:46 PM 60.1500 -59.7167 247° West 470 541 36,000  Level Gander Center
Tue 12:34:46 PM 60.1000 -59.9500 247° West 470 541 36,000  Level Gander Center
Tue 12:35:46 PM 60.0333 -60.1833 240° Southwest 470 541 36,000  Level Gander Center
Tue 12:36:46 PM 59.9833 -60.4167 247° West 470 541 36,000  Level Gander Center
Tue 12:37:46 PM 59.9167 -60.6500 240° Southwest 470 541 36,000  Level Gander Center
Tue 12:38:46 PM 59.8667 -60.8833 247° West 470 541 36,000  Level Gander Center
Tue 12:39:46 PM 59.8000 -61.1167 240° Southwest 470 541 36,000  Level Gander Center
Tue 12:40:46 PM 59.7500 -61.3500 247° West 470 541 36,000  Level Gander Center
Tue 12:41:46 PM 59.6833 -61.5833 241° Southwest 480 552 36,000  Level Gander Center
Tue 12:42:46 PM 59.6333 -61.8167 247° West 470 541 36,000  Level Gander Center
Tue 12:43:46 PM 59.5667 -62.0333 239° Southwest 470 541 36,000  Level Gander Center
Tue 12:44:46 PM 59.5167 -62.2667 247° West 470 541 36,000  Level Gander Center
Tue 12:45:46 PM 59.4500 -62.5000 241° Southwest 470 541 36,000  Level Gander Center
Tue 12:46:46 PM 59.4000 -62.7167 246° West 470 541 36,000  Level Gander Center
Tue 12:47:46 PM 59.3333 -62.9500 241° Southwest 470 541 36,000  Level Gander Center
Tue 12:48:46 PM 59.2667 -63.1667 239° Southwest 470 541 36,000  Level Gander Center
Tue 12:49:46 PM 59.2000 -63.3667 237° Southwest 470 541 36,000  Level Gander Center
Tue 12:50:46 PM 59.1333 -63.5833 239° Southwest 470 541 36,000  Level Gander Center
Tue 12:51:46 PM 59.0833 -63.8500 250° West 470 541 36,000  Level Gander Center
Tue 12:52:46 PM 59.0000 -64.0667 233° Southwest 470 541 36,000  Level Gander Center
Tue 12:53:46 PM 58.9333 -64.2500 235° Southwest 470 541 36,000  Level Gander Center
Tue 12:54:46 PM 58.8833 -64.4667 246° West 470 541 36,000  Level Gander Center
Tue 12:55:46 PM 58.8167 -64.7000 241° Southwest 470 541 36,000  Level Gander Center
Tue 12:56:46 PM 58.7500 -64.9167 239° Southwest 470 541 36,000  Level Gander Center
Tue 12:57:46 PM 58.6833 -65.1333 239° Southwest 470 541 36,000  Level Gander Center
Tue 12:58:46 PM 58.6167 -65.3500 239° Southwest 470 541 36,000  Level Gander Center
Tue 12:59:46 PM 58.5500 -65.5667 240° Southwest 470 541 36,000  Level Gander Center
Tue 01:00:46 PM 58.5000 -65.7833 246° West 470 541 36,000  Level Gander Center
Tue 01:01:46 PM 58.4167 -66.0000 234° Southwest 470 541 36,000  Level Gander Center
Tue 01:02:46 PM 58.3500 -66.2000 238° Southwest 470 541 36,000  Level Gander Center
Tue 01:03:46 PM 58.2833 -66.3833 235° Southwest 470 541 36,000  Level Gander Center
Tue 01:04:46 PM 58.2167 -66.6000 240° Southwest 470 541 36,000  Level Gander Center
Tue 01:05:46 PM 58.1167 -66.8167 229° Southwest 470 541 36,000  Level Gander Center
Tue 01:06:46 PM 58.0500 -66.9833 233° Southwest 470 541 36,000  Level Gander Center
Tue 01:07:46 PM 57.9500 -67.1667 224° Southwest 470 541 36,000  Level Gander Center
Tue 01:08:46 PM 57.8667 -67.3333 227° Southwest 470 541 36,000  Level Gander Center
Tue 01:09:46 PM 57.7833 -67.5500 234° Southwest 470 541 36,000  Level Gander Center
Tue 01:10:46 PM 57.7000 -67.7167 227° Southwest 470 541 36,000  Level Gander Center
Tue 01:11:46 PM 57.6000 -67.8833 222° Southwest 470 541 36,000  Level Gander Center
Tue 01:12:46 PM 57.5333 -68.0667 236° Southwest 470 541 36,000  Level Gander Center
Tue 01:14:12 PM 57.4000 -68.2667 219° Southwest 460 529 36,000  Level Montreal Center
Tue 01:15:12 PM 57.3167 -68.4500 230° Southwest 470 541 36,000  Level Montreal Center
Tue 01:16:12 PM 57.2167 -68.6167 222° Southwest 470 541 36,000  Level Montreal Center
Tue 01:17:12 PM 57.1333 -68.8000 230° Southwest 470 541 36,000  Level Montreal Center
Tue 01:18:12 PM 57.0333 -69.0000 227° Southwest 470 541 36,000  Level Montreal Center
Tue 01:19:12 PM 56.9500 -69.1667 228° Southwest 470 541 36,000  Level Montreal Center
Tue 01:20:12 PM 56.8500 -69.3333 222° Southwest 470 541 36,000  Level Montreal Center
Tue 01:21:12 PM 56.7833 -69.5000 234° Southwest 470 541 36,000  Level Montreal Center
Tue 01:22:12 PM 56.6833 -69.6833 225° Southwest 460 529 36,000  Level Montreal Center
Tue 01:23:12 PM 56.5833 -69.8500 223° Southwest 470 541 36,000  Level Montreal Center
Tue 01:24:12 PM 56.5000 -70.0167 228° Southwest 460 529 36,000  Level Montreal Center
Tue 01:25:12 PM 56.4000 -70.1833 223° Southwest 460 529 36,000  Level Montreal Center
Tue 01:26:12 PM 56.3333 -70.3500 234° Southwest 460 529 36,000  Level Montreal Center
Tue 01:27:12 PM 56.2333 -70.5000 220° Southwest 460 529 36,000  Level Montreal Center
Tue 01:28:12 PM 56.1333 -70.6667 223° Southwest 460 529 36,000  Level Montreal Center
Tue 01:29:12 PM 56.0500 -70.8333 228° Southwest 460 529 36,000  Level Montreal Center
Tue 01:30:12 PM 55.9500 -71.0000 223° Southwest 450 518 36,000  Level Montreal Center
Tue 01:31:12 PM 55.8500 -71.1667 223° Southwest 460 529 36,000  Level Montreal Center
Tue 01:32:12 PM 55.7833 -71.3167 232° Southwest 460 529 36,000  Level Montreal Center
Tue 01:33:12 PM 55.6833 -71.4833 223° Southwest 460 529 36,000  Level Montreal Center
Tue 01:34:12 PM 55.5833 -71.6500 223° Southwest 460 529 36,000  Level Montreal Center
Tue 01:35:12 PM 55.5000 -71.8000 226° Southwest 460 529 36,000  Level Montreal Center
Tue 01:36:12 PM 55.4167 -71.9500 226° Southwest 460 529 36,000  Level Montreal Center
Tue 01:37:12 PM 55.3167 -72.1167 224° Southwest 450 518 36,000  Level Montreal Center
Tue 01:38:12 PM 55.2167 -72.2667 221° Southwest 450 518 36,000  Level Montreal Center
Tue 01:39:12 PM 55.1167 -72.4333 224° Southwest 450 518 36,000  Level Montreal Center
Tue 01:40:12 PM 55.0500 -72.5833 232° Southwest 450 518 36,000  Level Montreal Center
Tue 01:41:12 PM 54.9500 -72.7333 221° Southwest 450 518 36,000  Level Montreal Center
Tue 01:42:12 PM 54.8500 -72.9000 224° Southwest 450 518 36,000  Level Montreal Center
Tue 01:43:12 PM 54.7667 -73.0167 219° Southwest 450 518 36,000  Level Montreal Center
Tue 01:44:12 PM 54.6667 -73.1667 221° Southwest 460 529 36,000  Level Montreal Center
Tue 01:45:12 PM 54.5667 -73.3167 221° Southwest 450 518 36,000  Level Montreal Center
Tue 01:46:12 PM 54.4833 -73.4667 226° Southwest 460 529 36,000  Level Montreal Center
Tue 01:47:12 PM 54.4000 -73.6167 226° Southwest 450 518 36,000  Level Montreal Center
Tue 01:48:12 PM 54.3000 -73.7667 221° Southwest 450 518 36,000  Level Montreal Center
Tue 01:49:12 PM 54.2167 -73.9167 226° Southwest 450 518 36,000  Level Montreal Center
Tue 01:50:12 PM 54.1167 -74.0667 221° Southwest 450 518 36,000  Level Montreal Center
Tue 01:51:12 PM 54.0167 -74.2167 221° Southwest 450 518 36,000  Level Montreal Center
Tue 01:52:12 PM 53.9167 -74.3667 221° Southwest 450 518 36,000  Level Montreal Center
Tue 01:53:12 PM 53.8333 -74.5000 223° Southwest 440 506 36,000  Level Montreal Center
Tue 01:54:12 PM 53.7333 -74.6500 222° Southwest 440 506 36,000  Level Montreal Center
Tue 01:55:12 PM 53.6333 -74.7667 215° Southwest 450 518 36,000  Level Montreal Center
Tue 01:56:12 PM 53.5500 -74.9167 227° Southwest 450 518 36,000  Level Montreal Center
Tue 01:57:12 PM 53.4500 -75.0667 222° Southwest 450 518 36,000  Level Montreal Center
Tue 01:58:12 PM 53.3500 -75.2000 219° Southwest 440 506 36,000  Level Montreal Center
Tue 01:59:12 PM 53.2667 -75.3500 227° Southwest 450 518 36,000  Level Montreal Center
Tue 02:00:12 PM 53.1667 -75.4833 219° Southwest 440 506 36,000  Level Montreal Center
Tue 02:01:12 PM 53.0667 -75.6333 222° Southwest 450 518 36,000  Level Montreal Center
Tue 02:02:12 PM 52.9833 -75.7667 224° Southwest 450 518 36,000  Level Montreal Center
Tue 02:03:12 PM 52.8833 -75.8833 215° Southwest 450 518 36,000  Level Montreal Center
Tue 02:04:12 PM 52.8000 -76.0167 224° Southwest 440 506 36,000  Level Montreal Center
Tue 02:05:12 PM 52.7000 -76.1667 222° Southwest 440 506 36,000  Level Montreal Center
Tue 02:06:12 PM 52.6167 -76.3000 224° Southwest 440 506 36,000  Level Montreal Center
Tue 02:07:12 PM 52.5167 -76.4000 211° Southwest 430 495 36,000  Level Montreal Center
Tue 02:08:12 PM 52.4333 -76.5500 228° Southwest 430 495 36,000  Level Montreal Center
Tue 02:09:12 PM 52.3500 -76.6833 224° Southwest 430 495 36,000  Level Montreal Center
Tue 02:10:12 PM 52.2500 -76.7833 211° Southwest 430 495 36,000  Level Montreal Center
Tue 02:11:12 PM 52.1667 -76.9167 224° Southwest 430 495 36,000  Level Montreal Center
Tue 02:12:12 PM 52.0500 -77.0667 218° Southwest 430 495 36,000  Level Montreal Center
Tue 02:13:12 PM 51.9667 -77.2000 225° Southwest 430 495 36,000  Level Montreal Center
Tue 02:14:12 PM 51.8667 -77.3333 219° Southwest 440 506 36,000  Level Montreal Center
Tue 02:15:12 PM 51.7833 -77.4333 217° Southwest 440 506 36,000  Level Montreal Center
Tue 02:16:12 PM 51.6833 -77.5667 220° Southwest 440 506 36,000  Level Montreal Center
Tue 02:17:12 PM 51.6000 -77.7000 225° Southwest 440 506 36,000  Level Montreal Center
Tue 02:18:12 PM 51.4833 -77.8333 215° Southwest 440 506 36,000  Level Montreal Center
Tue 02:19:12 PM 51.4000 -77.9333 217° Southwest 440 506 36,000  Level Montreal Center
Tue 02:20:12 PM 51.3000 -78.0667 220° Southwest 430 495 36,000  Level Montreal Center
Tue 02:21:12 PM 51.2167 -78.2000 225° Southwest 430 495 36,000  Level Montreal Center
Tue 02:22:12 PM 51.1333 -78.3000 217° Southwest 430 495 36,000  Level Montreal Center
Tue 02:23:12 PM 51.0333 -78.4333 220° Southwest 430 495 36,000  Level Montreal Center
Tue 02:24:12 PM 50.9333 -78.5500 216° Southwest 420 483 36,000  Level Montreal Center
Tue 02:25:12 PM 50.8333 -78.6833 220° Southwest 430 495 36,000  Level Montreal Center
Tue 02:26:12 PM 50.7500 -78.7833 217° Southwest 430 495 36,000  Level Montreal Center
Tue 02:27:12 PM 50.6500 -78.9167 220° Southwest 420 483 36,000  Level Montreal Center
Tue 02:28:12 PM 50.5500 -79.0167 212° Southwest 420 483 36,000  Level Montreal Center
Tue 02:29:12 PM 50.4667 -79.1333 222° Southwest 420 483 36,000  Level Montreal Center
Tue 02:30:13 PM 50.3833 -79.2167 213° Southwest 420 483 36,000  Level Toronto Center
Tue 02:31:13 PM 50.2833 -79.3167 213° Southwest 430 495 36,000  Level Toronto Center
Tue 02:32:13 PM 50.2000 -79.4500 226° Southwest 430 495 36,000  Level Toronto Center
Tue 02:33:13 PM 50.1000 -79.5500 213° Southwest 430 495 36,000  Level Toronto Center
Tue 02:34:13 PM 50.0000 -79.6833 221° Southwest 430 495 36,000  Level Toronto Center
Tue 02:35:13 PM 49.9167 -79.7833 218° Southwest 430 495 36,000  Level Toronto Center
Tue 02:36:13 PM 49.8167 -79.9167 221° Southwest 430 495 36,000  Level Toronto Center
Tue 02:37:13 PM 49.7167 -80.0167 213° Southwest 440 506 36,000  Level Toronto Center
Tue 02:38:13 PM 49.6167 -80.1500 221° Southwest 440 506 36,000  Level Toronto Center
Tue 02:39:13 PM 49.5333 -80.2500 218° Southwest 440 506 36,000  Level Toronto Center
Tue 02:40:13 PM 49.4333 -80.3667 217° Southwest 440 506 36,000  Level Toronto Center
Tue 02:41:13 PM 49.3333 -80.4667 213° Southwest 440 506 36,000  Level Toronto Center
Tue 02:42:13 PM 49.2333 -80.6000 221° Southwest 440 506 36,000  Level Toronto Center
Tue 02:43:13 PM 49.1333 -80.7000 213° Southwest 440 506 36,000  Level Toronto Center
Tue 02:44:13 PM 49.0333 -80.8167 217° Southwest 440 506 36,000  Level Toronto Center
Tue 02:45:13 PM 48.9333 -80.9167 213° Southwest 440 506 36,000  Level Toronto Center
Tue 02:46:13 PM 48.8333 -81.0500 221° Southwest 440 506 36,000  Level Toronto Center
Tue 02:47:13 PM 48.7333 -81.1500 213° Southwest 440 506 36,000  Level Toronto Center
Tue 02:48:13 PM 48.6333 -81.2667 218° Southwest 440 506 36,000  Level Toronto Center
Tue 02:49:13 PM 48.5500 -81.4000 227° Southwest 440 506 36,000  Level Toronto Center
Tue 02:50:13 PM 48.4667 -81.5167 223° Southwest 440 506 36,000  Level Toronto Center
Tue 02:51:13 PM 48.3667 -81.6333 218° Southwest 440 506 36,000  Level Toronto Center
Tue 02:52:13 PM 48.2833 -81.7667 227° Southwest 430 495 36,000  Level Toronto Center
Tue 02:53:13 PM 48.2000 -81.8833 223° Southwest 430 495 36,000  Level Toronto Center
Tue 02:58:34 PM 47.6880 -82.4730 223° Southwest 431 496 36,000  Level FlightAware ADS-B
Tue 02:59:20 PM 47.6110 -82.5480 213° Southwest 429 494 36,000  Level FlightAware ADS-B
Tue 02:59:58 PM 47.5470 -82.6100 213° Southwest 429 494 36,000  Level FlightAware ADS-B
Tue 03:00:42 PM 47.4740 -82.6800 213° Southwest 429 494 36,000  Level FlightAware ADS-B
Tue 03:01:24 PM 47.4050 -82.7460 213° Southwest 429 494 36,000  Level FlightAware ADS-B
Tue 03:02:04 PM 47.3380 -82.8110 213° Southwest 430 495 36,000  Level FlightAware ADS-B
Tue 03:02:48 PM 47.2650 -82.8810 213° Southwest 430 495 36,000  Level FlightAware ADS-B
Tue 03:03:30 PM 47.1950 -82.9480 213° Southwest 429 494 36,000  Level FlightAware ADS-B
Tue 03:04:10 PM 47.1280 -83.0110 213° Southwest 429 494 36,000  Level FlightAware ADS-B
Tue 03:04:54 PM 47.0560 -83.0800 213° Southwest 428 493 36,000  Level FlightAware ADS-B
Tue 03:05:36 PM 46.9850 -83.1470 213° Southwest 426 490 36,000  Level FlightAware ADS-B
Tue 03:06:16 PM 46.9190 -83.2090 213° Southwest 426 490 36,000  Level FlightAware ADS-B
Tue 03:07:00 PM 46.8470 -83.2770 213° Southwest 425 489 36,000  Level FlightAware ADS-B
Tue 03:07:44 PM 46.7740 -83.3450 213° Southwest 424 488 36,000  Level FlightAware ADS-B
Tue 03:08:25 PM 46.7100 -83.4050 213° Southwest 424 488 36,000  Level FlightAware ADS-B
Tue 03:09:04 PM 46.6430 -83.4680 213° Southwest 423 487 36,000  Level FlightAware ADS-B
Tue 03:09:46 PM 46.5730 -83.5320 212° Southwest 422 486 36,000  Level FlightAware ADS-B
Tue 03:10:30 PM 46.4940 -83.5840 204° Southwest 429 494 36,000  Level FlightAware ADS-B
Tue 03:11:26 PM 46.3910 -83.6460 203° Southwest 426 490 36,000  Level FlightAware ADS-B
Tue 03:12:07 PM 46.3190 -83.6930 204° Southwest 426 490 36,000  Level FlightAware ADS-B
Tue 03:12:48 PM 46.2440 -83.7420 204° Southwest 426 490 36,000  Level FlightAware ADS-B
Tue 03:13:34 PM 46.1600 -83.7940 203° Southwest 429 494 36,000  Level FlightAware ADS-B
Tue 03:14:28 PM 46.0610 -83.8540 203° Southwest 429 494 36,000  Level FlightAware ADS-B
Tue 03:15:04 PM 45.9960 -83.8930 203° Southwest 429 494 36,000  Level FlightAware ADS-B
Tue 03:15:54 PM 45.9040 -83.9480 203° Southwest 430 495 36,000  Level FlightAware ADS-B
Tue 03:16:32 PM 45.8340 -83.9900 203° Southwest 430 495 36,000  Level FlightAware ADS-B
Tue 03:17:14 PM 45.7570 -84.0360 203° Southwest 432 497 36,000  Level FlightAware ADS-B
Tue 03:18:00 PM 45.6730 -84.0850 202° Southwest 433 498 36,000  Level FlightAware ADS-B
Tue 03:18:38 PM 45.6010 -84.1280 203° Southwest 433 498 36,000  Level FlightAware ADS-B
Tue 03:19:20 PM 45.5260 -84.1730 203° Southwest 433 498 36,000  Level FlightAware ADS-B
Tue 03:20:04 PM 45.4430 -84.2210 202° Southwest 434 499 36,000  Level FlightAware ADS-B
Tue 03:20:44 PM 45.3720 -84.2630 203° Southwest 434 499 36,000  Level FlightAware ADS-B
Tue 03:21:27 PM 45.2930 -84.3090 202° Southwest 434 499 36,000  Level FlightAware ADS-B
Tue 03:22:08 PM 45.2160 -84.3540 202° Southwest 434 499 36,000  Level FlightAware ADS-B
Tue 03:22:50 PM 45.1340 -84.4020 202° Southwest 435 501 36,000  Level FlightAware ADS-B
Tue 03:23:34 PM 45.0520 -84.4490 202° Southwest 435 501 36,000  Level FlightAware ADS-B
Tue 03:24:14 PM 44.9770 -84.4920 202° Southwest 436 502 36,000  Level FlightAware ADS-B
Tue 03:25:00 PM 44.8920 -84.5410 202° Southwest 438 504 36,000 -138 Level FlightAware ADS-B
Tue 03:25:41 PM 44.8190 -84.5830 202° Southwest 442 509 35,800 -545 Descending FlightAware ADS-B
Tue 03:26:17 PM 44.7450 -84.6260 202° Southwest 447 514 35,300 -786 Descending FlightAware ADS-B
Tue 03:27:05 PM 44.6550 -84.6770 202° Southwest 446 513 34,700 -742 Descending FlightAware ADS-B
Tue 03:27:46 PM 44.5770 -84.7210 202° Southwest 444 511 34,200 -795 Descending FlightAware ADS-B
Tue 03:28:28 PM 44.4960 -84.7680 202° Southwest 444 511 33,600 -805 Descending FlightAware ADS-B
Tue 03:29:08 PM 44.4190 -84.8110 202° Southwest 443 510 33,100 -767 Descending FlightAware ADS-B
Tue 03:29:54 PM 44.3330 -84.8600 202° Southwest 437 503 32,500 -465 Descending FlightAware ADS-B
Tue 03:31:30 PM 44.1540 -84.9600 202° Southwest 441 507 32,000 -221 Descending FlightAware ADS-B
Tue 03:32:10 PM 44.0780 -85.0030 202° Southwest 445 512 32,000  Level FlightAware ADS-B
Tue 03:32:54 PM 43.9940 -85.0500 202° Southwest 447 514 32,000  Level FlightAware ADS-B
Tue 03:33:38 PM 43.9080 -85.0970 201° Southwest 450 518 32,000  Level FlightAware ADS-B
Tue 03:34:20 PM 43.8270 -85.1420 202° Southwest 451 519 32,000  Level FlightAware ADS-B
Tue 03:35:00 PM 43.7490 -85.1850 202° Southwest 448 516 32,000  Level FlightAware ADS-B
Tue 03:35:40 PM 43.6710 -85.2220 199° South 448 516 32,000  Level FlightAware ADS-B
Tue 03:36:26 PM 43.5790 -85.2520 193° South 451 519 32,000  Level FlightAware ADS-B
Tue 03:37:09 PM 43.4900 -85.2790 192° South 451 519 32,000 -73 Level FlightAware ADS-B
Tue 03:37:48 PM 43.4110 -85.3040 193° South 453 521 31,900 -571 Descending FlightAware ADS-B
Tue 03:38:33 PM 43.3180 -85.3330 193° South 457 526 31,200 -1,000 Descending FlightAware ADS-B
Tue 03:39:12 PM 43.2400 -85.3570 193° South 442 509 30,500 -1,012 Descending FlightAware ADS-B
Tue 03:39:56 PM 43.1550 -85.3830 193° South 414 476 29,800 -977 Descending FlightAware ADS-B
Tue 03:40:38 PM 43.0780 -85.4070 193° South 399 459 29,100 -1,000 Descending FlightAware ADS-B
Tue 03:41:20 PM 43.0030 -85.4300 193° South 395 455 28,400 -1,084 Descending FlightAware ADS-B
Tue 03:42:01 PM 42.9290 -85.4530 193° South 396 456 27,600 -1,215 Descending FlightAware ADS-B
Tue 03:42:39 PM 42.8630 -85.4740 193° South 391 450 26,800 -1,324 Descending FlightAware ADS-B
Tue 03:43:09 PM 42.8120 -85.4970 198° South 377 434 26,100 -1,304 Descending FlightAware ADS-B
Tue 03:43:25 PM 42.7910 -85.5220 221° Southwest 372 428 25,800 -1,313 Descending FlightAware ADS-B
Tue 03:43:41 PM 42.7770 -85.5550 240° Southwest 373 429 25,400 -1,393 Descending FlightAware ADS-B
Tue 03:44:21 PM 42.7590 -85.6490 255° West 387 445 24,500 -1,304 Descending FlightAware ADS-B
Tue 03:45:59 PM 42.7210 -85.8630 256° West 356 410 22,400 -1,261 Descending FlightAware ADS-B
Tue 03:46:39 PM 42.7040 -85.9550 256° West 354 407 21,600 -1,171 Descending FlightAware ADS-B
Tue 03:47:21 PM 42.6880 -86.0440 256° West 349 402 20,800 -1,071 Descending FlightAware ADS-B
Tue 03:48:03 PM 42.6720 -86.1330 256° West 341 392 20,100 -552 Descending FlightAware ADS-B
Tue 03:48:48 PM 42.6550 -86.2220 255° West 335 386 20,000 -71 Descending FlightAware ADS-B
Tue 03:49:28 PM 42.6390 -86.3080 256° West 339 390 20,000  Level FlightAware ADS-B
Tue 03:50:08 PM 42.6240 -86.3900 256° West 338 389 20,000 -786 Level FlightAware ADS-B
Tue 03:50:52 PM 42.6070 -86.4790 255° West 331 381 18,900 -1,618 Descending FlightAware ADS-B
Tue 03:51:37 PM 42.5910 -86.5670 256° West 317 365 17,600 -1,807 Descending FlightAware ADS-B
Tue 03:52:15 PM 42.5770 -86.6390 255° West 311 358 16,400 -2,080 Descending FlightAware ADS-B
Tue 03:52:52 PM 42.5630 -86.7100 255° West 311 358 15,000 -1,953 Descending FlightAware ADS-B
Tue 03:53:41 PM 42.5410 -86.7970 251° West 305 351 13,600 -1,867 Descending FlightAware ADS-B
Tue 03:54:22 PM 42.5200 -86.8730 249° West 304 350 12,200 -1,857 Descending FlightAware ADS-B
Tue 03:55:05 PM 42.5010 -86.9450 250° West 297 342 11,000 -1,583 Descending FlightAware ADS-B
Tue 03:55:34 PM 42.4860 -86.9990 249° West 294 338 10,300 -882 Descending FlightAware ADS-B
Tue 03:56:13 PM 42.4700 -87.0590 250° West 270 311 10,000 -514 Descending FlightAware ADS-B
Tue 03:56:44 PM 42.4560 -87.1080 249° West 260 299 9,700 -655 Descending FlightAware ADS-B
Tue 03:57:08 PM 42.4460 -87.1470 251° West 259 298 9,400 -792 Descending FlightAware ADS-B
Tue 03:57:37 PM 42.4340 -87.1900 249° West 262 302 9,000 -316 Descending FlightAware ADS-B
Tue 03:58:05 PM 42.4150 -87.2280 236° Southwest 272 313 9,100 130 Climbing FlightAware ADS-B
Tue 03:58:23 PM 42.3950 -87.2350 194° South 284 327 9,100  Level FlightAware ADS-B
Tue 03:58:46 PM 42.3610 -87.2300 174° South 288 331 9,100 -113 Level FlightAware ADS-B
Tue 03:59:16 PM 42.3220 -87.2240 174° South 287 330 9,000 -103 Descending FlightAware ADS-B
Tue 03:59:44 PM 42.2860 -87.2190 174° South 272 313 9,000  Level FlightAware ADS-B
Tue 03:59:54 PM 42.2740 -87.2170 173° South 262 302 9,000 85 Level FlightAware ADS-B
Tue 04:00:55 PM 42.2060 -87.2050 173° South 246 283 9,100 -198 Climbing FlightAware ADS-B
Tue 04:01:25 PM 42.1710 -87.2000 174° South 242 278 8,700 -947 Descending FlightAware ADS-B
Tue 04:01:52 PM 42.1420 -87.1950 173° South 239 275 8,200 -1,038 Descending FlightAware ADS-B
Tue 04:02:17 PM 42.1150 -87.1900 172° South 236 272 7,800 -1,038 Descending FlightAware ADS-B
Tue 04:02:44 PM 42.0850 -87.1840 172° South 231 266 7,300 -1,138 Descending FlightAware ADS-B
Tue 04:03:15 PM 42.0530 -87.1790 173° South 228 262 6,700 -1,174 Descending FlightAware ADS-B
Tue 04:03:30 PM 42.0370 -87.1760 172° South 229 264 6,400 -655 Descending FlightAware ADS-B
Tue 04:04:10 PM 41.9970 -87.1880 193° South 240 276 6,100 -436 Descending FlightAware ADS-B
Tue 04:04:25 PM 41.9890 -87.2060 239° Southwest 247 284 6,000 -558 Descending FlightAware ADS-B
Tue 04:04:53 PM 41.9730 -87.2400 238° Southwest 236 272 5,700 -600 Descending FlightAware ADS-B
Tue 04:05:05 PM 41.9610 -87.2490 209° Southwest 229 264 5,600 -558 Descending FlightAware ADS-B
Tue 04:05:36 PM 41.9390 -87.2770 223° Southwest 200 230 5,300 -508 Descending FlightAware ADS-B
Tue 04:06:04 PM 41.9450 -87.3070 285° West 189 217 5,100 -310 Descending FlightAware ADS-B
Tue 04:06:34 PM 41.9570 -87.3380 298° West 183 211 5,000 -107 Descending FlightAware ADS-B
Tue 04:07:00 PM 41.9660 -87.3640 295° West 168 193 5,000 143 Level FlightAware ADS-B
Tue 04:07:16 PM 41.9680 -87.3800 280° West 162 186 5,100 162 Climbing FlightAware ADS-B
Tue 04:07:37 PM 41.9690 -87.4000 274° West 166 191 5,100  Level FlightAware ADS-B
Tue 04:08:12 PM 41.9690 -87.4400 270° West 178 205 5,100 -100 Level FlightAware ADS-B
Tue 04:08:37 PM 41.9690 -87.4670 270° West 177 204 5,000 -171 Descending FlightAware ADS-B
Tue 04:08:47 PM 41.9690 -87.4780 270° West 176 203 5,000  Level FlightAware ADS-B
Tue 04:09:17 PM 41.9690 -87.5110 270° West 174 200 5,000  Level FlightAware ADS-B
Tue 04:09:42 PM 41.9690 -87.5360 270° West 173 199 5,000  Level FlightAware ADS-B
Tue 04:10:17 PM 41.9690 -87.5750 270° West 172 198 5,000 -327 Level FlightAware ADS-B
Tue 04:10:37 PM 41.9690 -87.5960 270° West 180 207 4,700 -882 Descending FlightAware ADS-B
Tue 04:11:25 PM 41.9690 -87.6490 270° West 173 199 4,000 -886 Descending FlightAware ADS-B
Tue 04:12:05 PM 41.9690 -87.6900 270° West 175 201 3,400 -930 Descending FlightAware ADS-B
Tue 04:12:36 PM 41.9690 -87.7270 270° West 180 207 2,900 -964 Descending FlightAware ADS-B
Tue 04:13:01 PM 41.9690 -87.7520 270° West 176 203 2,500 -857 Descending FlightAware ADS-B
Tue 04:13:32 PM 41.9690 -87.7850 270° West 162 186 2,100 -764 Descending FlightAware ADS-B
Tue 04:13:56 PM 41.9690 -87.8070 270° West 149 171 1,800 -750 Descending FlightAware ADS-B
Tue 04:14:20 PM 41.9690 -87.8310 270° West 142 163 1,500 -737 Descending FlightAware ADS-B
Tue 04:14:53 PM 41.9690 -87.8580 270° West 139 160 1,100 -700 Descending FlightAware ADS-B
Tue 04:15:20 PM 41.9690 -87.8830 270° West 143 165 800 -327 Descending FlightAware ADS-B
Tue 04:15:48 PM 41.9690 -87.9040 270° West 143 165 800  Level FlightAware ADS-B

Login

Don't have an account? Register now (free) for customized features, flight alerts, and more!